Time;durP1;ratioP1;P1;durP2;ratioP2;P2;SDS_P1;SDS_P2;PMS_P1;PMS_P2;Temp;Humidity;BMP_temperature;BMP_pressure;BME280_temperature;BME280_humidity;BME280_pressure;Samples;Min_cycle;Max_cycle;Signal;HPM_P1;HPM_P2
2021/09/16 00:01:36;;;;;;;11.10;4.40;;;21.50;68.20;;;;;;4864327;29;20033;-89
2021/09/16 00:04:03;;;;;;;9.15;4.22;;;21.40;68.20;;;;;;4864193;29;20172;-89
2021/09/16 00:06:28;;;;;;;9.95;4.32;;;21.50;68.20;;;;;;4864247;29;20478;-89
2021/09/16 00:08:54;;;;;;;9.27;4.80;;;21.40;68.00;;;;;;4864187;29;20029;-89
2021/09/16 00:11:19;;;;;;;8.18;4.38;;;21.40;68.10;;;;;;4864223;29;20036;-89
2021/09/16 00:13:45;;;;;;;9.40;4.30;;;21.40;68.30;;;;;;4864025;29;20025;-89
2021/09/16 00:16:11;;;;;;;8.23;4.65;;;21.40;68.50;;;;;;4863899;29;20033;-89
2021/09/16 00:18:37;;;;;;;8.25;4.35;;;21.40;68.50;;;;;;4864306;29;20120;-88
2021/09/16 00:21:04;;;;;;;9.30;4.70;;;21.30;68.50;;;;;;4863822;29;20033;-89
2021/09/16 00:23:29;;;;;;;9.18;4.10;;;21.40;68.60;;;;;;4863922;29;20033;-89
2021/09/16 00:25:55;;;;;;;8.60;4.25;;;21.40;68.70;;;;;;4863748;29;20049;-89
2021/09/16 00:28:21;;;;;;;9.75;4.60;;;21.40;69.40;;;;;;4864208;29;20473;-89
2021/09/16 00:30:46;;;;;;;8.73;3.95;;;21.30;68.80;;;;;;4864072;29;20394;-89
2021/09/16 00:33:12;;;;;;;8.75;4.55;;;21.30;68.80;;;;;;4863758;29;20076;-89
2021/09/16 00:35:38;;;;;;;8.32;4.38;;;21.40;68.90;;;;;;4863824;29;20445;-89
2021/09/16 00:38:04;;;;;;;9.50;4.53;;;21.30;68.90;;;;;;4898393;29;20036;-90
2021/09/16 00:40:30;;;;;;;7.78;4.50;;;21.30;69.00;;;;;;4899939;29;20029;-90
2021/09/16 00:42:55;;;;;;;10.02;4.75;;;21.30;69.00;;;;;;4902226;29;20067;-90
2021/09/16 00:45:21;;;;;;;9.73;4.40;;;21.30;69.00;;;;;;4902709;29;20060;-91
2021/09/16 00:47:49;;;;;;;8.95;4.13;;;21.30;69.10;;;;;;4886626;29;20473;-91
2021/09/16 00:50:17;;;;;;;8.77;4.45;;;21.30;69.30;;;;;;4902506;29;20039;-90
2021/09/16 00:52:43;;;;;;;8.60;4.18;;;21.20;69.20;;;;;;4901738;29;20118;-90
2021/09/16 00:55:10;;;;;;;9.07;4.10;;;21.30;69.30;;;;;;4901476;29;20028;-91
2021/09/16 00:57:37;;;;;;;8.55;4.20;;;21.20;69.30;;;;;;4901950;29;20032;-91
2021/09/16 01:00:08;;;;;;;10.57;4.43;;;21.20;69.90;;;;;;4902144;29;20028;-90
2021/09/16 01:02:34;;;;;;;8.85;4.20;;;21.20;69.30;;;;;;4903113;29;20021;-90
2021/09/16 01:04:59;;;;;;;9.40;4.57;;;21.10;69.20;;;;;;4886096;29;20047;-91
2021/09/16 01:07:25;;;;;;;8.30;4.25;;;21.10;69.20;;;;;;4901478;29;20033;-91
2021/09/16 01:09:53;;;;;;;7.93;4.13;;;21.10;69.30;;;;;;4886443;29;20127;-91
2021/09/16 01:12:19;;;;;;;9.88;4.20;;;21.00;69.40;;;;;;4901682;29;20422;-89
2021/09/16 01:14:45;;;;;;;8.70;4.40;;;21.10;69.60;;;;;;4901512;29;20039;-91
2021/09/16 01:17:11;;;;;;;7.97;4.00;;;21.00;69.70;;;;;;4901082;29;20025;-92
2021/09/16 01:19:38;;;;;;;8.45;4.18;;;20.90;69.70;;;;;;4901505;29;20461;-92
2021/09/16 01:22:04;;;;;;;7.68;4.13;;;20.90;69.90;;;;;;4902807;29;20035;-92
2021/09/16 01:24:30;;;;;;;10.02;4.30;;;21.00;70.10;;;;;;4901077;29;20032;-92
2021/09/16 01:26:55;;;;;;;9.32;4.13;;;21.00;70.20;;;;;;4901320;29;20385;-91
2021/09/16 01:29:21;;;;;;;8.95;4.40;;;21.00;70.30;;;;;;4885769;29;20029;-91
2021/09/16 01:31:49;;;;;;;7.97;4.32;;;21.00;70.40;;;;;;4900541;29;20029;-91
2021/09/16 01:34:18;;;;;;;8.43;4.20;;;20.90;70.40;;;;;;4900554;29;20070;-92
2021/09/16 01:36:46;;;;;;;9.13;4.00;;;21.00;70.50;;;;;;4897315;29;20032;-93
2021/09/16 01:39:13;;;;;;;9.05;4.60;;;21.00;70.50;;;;;;4885477;29;20401;-92
2021/09/16 01:41:39;;;;;;;9.00;4.40;;;21.00;70.50;;;;;;4885418;29;20028;-91
2021/09/16 01:44:05;;;;;;;9.50;4.03;;;21.00;70.50;;;;;;4885182;29;20039;-92
2021/09/16 01:46:31;;;;;;;8.48;4.13;;;20.90;70.50;;;;;;4885358;29;20039;-92
2021/09/16 01:48:59;;;;;;;8.93;4.22;;;20.90;70.50;;;;;;4885903;29;20033;-92
2021/09/16 01:51:25;;;;;;;8.05;4.22;;;21.00;70.50;;;;;;4885565;29;20032;-90
2021/09/16 01:53:50;;;;;;;8.23;4.47;;;20.90;70.40;;;;;;4885719;29;20028;-92
2021/09/16 01:56:16;;;;;;;8.10;4.47;;;21.00;70.40;;;;;;4885586;29;20111;-89
2021/09/16 01:58:42;;;;;;;8.27;4.30;;;20.80;70.20;;;;;;4885458;29;20048;-89
2021/09/16 02:01:08;;;;;;;8.45;3.90;;;20.70;70.10;;;;;;4885248;29;20033;-92
2021/09/16 02:03:33;;;;;;;9.70;4.60;;;20.80;70.20;;;;;;4884803;29;20049;-91
2021/09/16 02:05:59;;;;;;;7.93;4.20;;;20.60;70.30;;;;;;4884966;29;20617;-90
2021/09/16 02:08:25;;;;;;;9.63;4.65;;;20.60;70.60;;;;;;4885295;29;20025;-90
2021/09/16 02:10:52;;;;;;;8.32;4.55;;;20.70;70.90;;;;;;4885364;29;20025;-90
2021/09/16 02:13:18;;;;;;;9.07;4.80;;;20.60;70.90;;;;;;4901671;29;20536;-90
2021/09/16 02:15:44;;;;;;;10.15;4.50;;;20.60;71.00;;;;;;4885611;29;20021;-90
2021/09/16 02:18:09;;;;;;;8.70;4.35;;;20.50;70.90;;;;;;4884722;29;20504;-88
2021/09/16 02:20:35;;;;;;;8.48;4.30;;;20.50;70.90;;;;;;4884201;29;20025;-91
2021/09/16 02:23:01;;;;;;;7.93;4.47;;;20.50;71.10;;;;;;4869165;29;20032;-89
2021/09/16 02:25:26;;;;;;;10.10;4.55;;;20.50;71.20;;;;;;4884099;29;20040;-89
2021/09/16 02:27:52;;;;;;;8.15;4.57;;;20.40;71.40;;;;;;4884272;29;20123;-90
2021/09/16 02:30:20;;;;;;;8.18;4.25;;;20.50;71.50;;;;;;4884656;29;20036;-88
2021/09/16 02:32:46;;;;;;;8.50;4.22;;;20.50;71.70;;;;;;4868451;29;20374;-88
2021/09/16 02:35:12;;;;;;;9.40;4.30;;;20.40;71.70;;;;;;4883830;29;20051;-88
2021/09/16 02:37:39;;;;;;;9.18;4.60;;;20.40;71.70;;;;;;4879697;29;20440;-90
2021/09/16 02:40:07;;;;;;;8.85;4.43;;;20.40;71.70;;;;;;4884662;29;20032;-90
2021/09/16 02:42:33;;;;;;;10.05;4.20;;;20.40;71.80;;;;;;4900278;29;20036;-91
2021/09/16 02:44:59;;;;;;;7.70;4.15;;;20.40;72.00;;;;;;4899780;29;20037;-90
2021/09/16 02:47:24;;;;;;;8.43;4.20;;;20.40;72.10;;;;;;4899933;29;20025;-90
2021/09/16 02:49:50;;;;;;;8.70;4.30;;;20.40;72.10;;;;;;4899278;29;20084;-89
2021/09/16 02:52:16;;;;;;;7.57;4.20;;;20.40;72.20;;;;;;4900050;29;20028;-89
2021/09/16 02:54:41;;;;;;;8.82;4.43;;;20.40;72.30;;;;;;4899125;29;20080;-90
2021/09/16 02:57:07;;;;;;;8.35;4.20;;;20.40;72.30;;;;;;4898738;29;20033;-89
2021/09/16 02:59:32;;;;;;;8.75;4.15;;;20.40;72.20;;;;;;4884436;29;20067;-91
2021/09/16 03:01:59;;;;;;;8.63;4.13;;;20.40;72.30;;;;;;4899548;29;20028;-91
2021/09/16 03:04:25;;;;;;;8.95;3.97;;;20.30;72.30;;;;;;4899828;29;20149;-92
2021/09/16 03:06:50;;;;;;;9.07;4.00;;;20.40;72.50;;;;;;4884014;29;20119;-91
2021/09/16 03:09:19;;;;;;;9.07;4.03;;;20.40;73.20;;;;;;4899755;29;20095;-91
2021/09/16 03:11:44;;;;;;;9.02;4.65;;;20.30;72.60;;;;;;4883926;29;20172;-90
2021/09/16 03:14:10;;;;;;;8.18;4.30;;;20.30;72.60;;;;;;4899555;29;20077;-90
2021/09/16 03:16:36;;;;;;;9.50;4.30;;;20.30;72.60;;;;;;4898506;29;20127;-89
2021/09/16 03:19:02;;;;;;;8.95;4.40;;;20.40;72.70;;;;;;4900165;29;20061;-90
2021/09/16 03:21:27;;;;;;;8.68;4.32;;;20.30;72.80;;;;;;4901442;29;20127;-90
2021/09/16 03:23:53;;;;;;;8.63;4.60;;;20.30;72.90;;;;;;4901110;29;20024;-90
2021/09/16 03:26:19;;;;;;;8.27;4.68;;;20.30;72.90;;;;;;4887658;29;20044;-91
2021/09/16 03:28:44;;;;;;;10.10;4.32;;;20.40;73.00;;;;;;4883709;29;20071;-90
2021/09/16 03:31:10;;;;;;;8.73;4.00;;;20.30;72.90;;;;;;4899169;29;20039;-91
2021/09/16 03:33:36;;;;;;;8.60;4.85;;;20.30;73.00;;;;;;4900224;29;20036;-91
2021/09/16 03:36:02;;;;;;;9.18;4.60;;;20.30;73.10;;;;;;4916355;29;20072;-91
2021/09/16 03:38:28;;;;;;;7.93;4.30;;;20.30;73.10;;;;;;4883838;29;20029;-91
2021/09/16 03:40:54;;;;;;;10.00;4.65;;;20.30;73.10;;;;;;4883393;29;20031;-91
2021/09/16 03:43:19;;;;;;;9.85;4.32;;;20.40;73.20;;;;;;4883469;29;20067;-91
2021/09/16 03:45:45;;;;;;;8.75;4.43;;;20.30;73.20;;;;;;4882924;29;20128;-91
2021/09/16 03:48:11;;;;;;;7.53;4.20;;;20.30;73.20;;;;;;4882744;29;20124;-91
2021/09/16 03:50:38;;;;;;;8.35;4.20;;;20.30;73.30;;;;;;4883472;29;20044;-91
2021/09/16 03:53:04;;;;;;;8.13;4.30;;;20.40;73.40;;;;;;4882965;29;20036;-90
2021/09/16 03:55:30;;;;;;;8.45;4.30;;;20.30;73.40;;;;;;4866570;29;20045;-90
2021/09/16 03:57:56;;;;;;;8.82;4.13;;;20.30;73.30;;;;;;4881835;29;20024;-90
2021/09/16 04:00:22;;;;;;;8.23;4.53;;;20.30;73.40;;;;;;4899783;29;20028;-90
2021/09/16 04:03:37;;;;;;;7.70;3.90;;;20.30;73.50;;;;;;4883126;29;20034;-91
2021/09/16 04:09:25;;;;;;;10.40;6.80;;;20.30;73.50;;;;;;4900424;29;20043;-90
2021/09/16 04:15:17;;;;;;;10.35;6.88;;;20.30;73.60;;;;;;4898590;29;20036;-91
2021/09/16 04:21:05;;;;;;;11.00;7.70;;;20.30;73.70;;;;;;4899497;29;20044;-92
2021/09/16 04:26:52;;;;;;;9.85;4.60;;;20.30;73.70;;;;;;4899661;29;20055;-92
2021/09/16 04:32:40;;;;;;;7.70;4.18;;;20.20;73.60;;;;;;4901217;29;20091;-93
2021/09/16 04:38:28;;;;;;;10.85;7.55;;;20.20;73.80;;;;;;4902250;29;20040;-92
2021/09/16 04:51:01;;;;;;;8.82;4.65;;;20.10;74.40;;;;;;4899554;29;20064;-93
2021/09/16 04:56:49;;;;;;;8.90;4.63;;;20.10;74.80;;;;;;4916253;29;20057;-93
2021/09/16 05:02:37;;;;;;;8.98;4.60;;;20.10;75.10;;;;;;4899524;29;20667;-92
2021/09/16 05:08:24;;;;;;;8.65;4.60;;;20.10;75.10;;;;;;4899271;29;20056;-93
2021/09/16 05:14:12;;;;;;;8.43;4.32;;;20.20;75.20;;;;;;4899180;29;20528;-93
2021/09/16 05:20:06;;;;;;;;;;;;;;;;;;;;;
2021/09/16 05:27:00;;;;;;;8.70;4.80;;;20.30;75.50;;;;;;4831330;29;20163;-91
2021/09/16 05:29:58;;;;;;;8.90;4.82;;;20.30;76.10;;;;;;4813493;29;20037;-94
2021/09/16 05:32:40;;;;;;;12.75;4.43;;;20.40;75.50;;;;;;4865596;29;20037;-95
2021/09/16 05:35:12;;;;;;;10.23;4.70;;;20.40;75.50;;;;;;4865520;29;20057;-93
2021/09/16 05:48:05;;;;;;;7.80;4.25;;;20.60;75.40;;;;;;4851652;29;20048;-94
2021/09/16 08:24:45;;;;;;;6.47;2.90;;;23.30;71.90;;;;;;5494960;23;20065;-89
2021/09/16 08:27:51;;;;;;;6.93;3.20;;;23.30;71.90;;;;;;4845452;29;20041;-90
2021/09/16 09:27:57;;;;;;;;;;;;;;;;;;;;;
2021/09/16 16:50:29;;;;;;;10.40;7.18;;;20.60;61.40;;;;;;5086027;23;20048;-84
2021/09/16 17:16:31;;;;;;;9.25;6.45;;;20.10;62.30;;;;;;4940058;29;20043;-94
2021/09/16 17:19:24;;;;;;;9.63;6.25;;;20.10;62.50;;;;;;4934127;29;20107;-93
2021/09/16 17:52:19;;;;;;;11.02;6.38;;;19.40;63.60;;;;;;5514253;23;19924;-88
2021/09/16 17:54:49;;;;;;;10.02;5.78;;;19.30;63.60;;;;;;4872279;29;20108;-90
2021/09/16 17:57:17;;;;;;;10.02;5.35;;;19.20;64.30;;;;;;4871806;29;20097;-89
2021/09/16 17:59:44;;;;;;;9.05;5.43;;;19.10;63.60;;;;;;4871803;29;20036;-87
2021/09/16 18:02:13;;;;;;;8.80;5.30;;;19.00;63.60;;;;;;4872341;29;20077;-88
2021/09/16 18:04:39;;;;;;;9.98;5.47;;;18.80;63.70;;;;;;4871376;29;20036;-87
2021/09/16 18:07:06;;;;;;;8.07;4.63;;;18.80;63.90;;;;;;4870771;29;20033;-88
2021/09/16 18:09:31;;;;;;;8.43;4.93;;;18.70;64.00;;;;;;4889018;29;20032;-87
2021/09/16 18:11:58;;;;;;;9.90;5.30;;;18.60;64.10;;;;;;4887346;29;20028;-88
2021/09/16 18:14:25;;;;;;;9.05;5.05;;;18.50;64.20;;;;;;4871035;29;20063;-88
2021/09/16 18:16:50;;;;;;;9.70;5.00;;;18.40;64.30;;;;;;4904060;29;20028;-87
2021/09/16 18:19:17;;;;;;;9.10;4.82;;;18.30;64.40;;;;;;4872014;29;20041;-87
2021/09/16 18:21:43;;;;;;;10.23;4.55;;;18.20;64.50;;;;;;4887665;29;20092;-88
2021/09/16 18:24:09;;;;;;;10.88;4.82;;;18.10;64.60;;;;;;4887447;29;20167;-90
2021/09/16 18:26:36;;;;;;;10.43;4.60;;;18.00;65.30;;;;;;4871604;29;20037;-89
2021/09/16 18:29:02;;;;;;;8.35;4.53;;;18.00;64.80;;;;;;4852060;29;20061;-88
2021/09/16 18:31:28;;;;;;;8.95;4.75;;;17.90;64.90;;;;;;4867571;29;20029;-89
2021/09/16 18:33:54;;;;;;;10.20;6.78;;;17.80;65.00;;;;;;4868050;29;20057;-89
2021/09/16 18:36:21;;;;;;;9.10;4.88;;;17.80;65.80;;;;;;4864554;29;20033;-85
2021/09/16 18:38:47;;;;;;;9.32;4.55;;;17.70;65.30;;;;;;4927401;29;20031;-83
2021/09/16 18:41:13;;;;;;;9.07;4.72;;;17.60;65.30;;;;;;4899318;29;20042;-88
2021/09/16 18:43:39;;;;;;;8.88;4.65;;;17.60;65.50;;;;;;4906104;29;20036;-88
2021/09/16 18:46:05;;;;;;;8.60;4.90;;;17.50;65.60;;;;;;4905085;29;20484;-89
2021/09/16 18:48:33;;;;;;;8.57;4.68;;;17.40;65.70;;;;;;4905761;29;20522;-88
2021/09/16 18:50:58;;;;;;;10.35;4.50;;;17.40;65.90;;;;;;4904332;29;20072;-87
2021/09/16 18:53:25;;;;;;;9.02;4.75;;;17.30;66.00;;;;;;4885877;29;20053;-88
2021/09/16 18:55:51;;;;;;;9.00;5.00;;;17.30;66.20;;;;;;4901849;29;20037;-89
2021/09/16 18:58:17;;;;;;;8.90;4.82;;;17.20;66.20;;;;;;4902973;29;20033;-87
2021/09/16 19:00:43;;;;;;;9.82;5.60;;;17.20;66.40;;;;;;4902210;29;20048;-85
2021/09/16 19:03:08;;;;;;;8.38;4.60;;;17.10;66.40;;;;;;4902230;29;20504;-88
2021/09/16 19:05:34;;;;;;;10.05;5.18;;;17.00;66.50;;;;;;4887337;29;20044;-88
2021/09/16 19:08:00;;;;;;;8.80;4.72;;;17.00;66.70;;;;;;4885078;29;20491;-89
2021/09/16 19:10:26;;;;;;;10.38;5.25;;;16.90;66.80;;;;;;4887571;29;20025;-88
2021/09/16 19:12:53;;;;;;;9.77;5.30;;;16.80;66.90;;;;;;4903678;29;20064;-88
2021/09/16 19:15:19;;;;;;;9.98;5.07;;;16.80;67.00;;;;;;4887210;29;20033;-90
2021/09/16 19:17:45;;;;;;;10.07;5.13;;;16.70;67.10;;;;;;4886697;29;20036;-88
2021/09/16 19:20:11;;;;;;;8.98;4.93;;;16.70;67.20;;;;;;4887312;29;20373;-89
2021/09/16 19:22:38;;;;;;;9.40;5.45;;;16.60;67.40;;;;;;4882555;29;20021;-88
2021/09/16 19:25:05;;;;;;;9.70;5.25;;;16.50;67.50;;;;;;4882397;29;20401;-90
2021/09/16 19:27:33;;;;;;;9.30;5.07;;;16.50;67.60;;;;;;4883420;29;20116;-89
2021/09/16 19:30:01;;;;;;;9.18;5.28;;;16.50;67.70;;;;;;4883380;29;20043;-87
2021/09/16 19:32:27;;;;;;;11.40;5.60;;;16.30;67.90;;;;;;4866759;29;20128;-89
2021/09/16 19:34:52;;;;;;;9.27;5.57;;;16.30;67.90;;;;;;4881660;29;20049;-88
2021/09/16 19:37:20;;;;;;;9.20;5.07;;;16.20;67.90;;;;;;4864277;29;20127;-89
2021/09/16 19:39:48;;;;;;;13.15;5.70;;;16.20;68.10;;;;;;4865504;29;20033;-87
2021/09/16 19:42:15;;;;;;;10.75;5.47;;;16.10;68.30;;;;;;4880925;29;20025;-90
2021/09/16 19:44:42;;;;;;;10.95;5.55;;;16.10;68.50;;;;;;4881437;29;20037;-91
2021/09/16 19:47:08;;;;;;;10.82;6.10;;;16.00;68.70;;;;;;4882317;29;20025;-89
2021/09/16 19:49:34;;;;;;;10.48;5.78;;;16.00;68.90;;;;;;4881057;29;20032;-90
2021/09/16 19:52:00;;;;;;;9.32;5.63;;;16.00;69.00;;;;;;4877501;29;20498;-87
2021/09/16 19:54:26;;;;;;;12.90;5.95;;;15.90;69.10;;;;;;4852452;29;20033;-90
2021/09/16 19:56:51;;;;;;;9.00;5.20;;;15.80;69.20;;;;;;4874534;29;20032;-91
2021/09/16 19:59:17;;;;;;;11.32;5.90;;;15.70;69.30;;;;;;4904377;29;20059;-89
2021/09/16 20:01:44;;;;;;;10.35;5.32;;;15.80;69.60;;;;;;4890151;29;20041;-89
2021/09/16 20:04:11;;;;;;;10.68;5.38;;;15.70;69.60;;;;;;4887305;29;20048;-91
2021/09/16 20:06:37;;;;;;;10.15;5.43;;;15.60;69.80;;;;;;4886488;29;20041;-90
2021/09/16 20:09:04;;;;;;;11.38;5.43;;;15.60;69.80;;;;;;4882768;29;20036;-88
2021/09/16 20:11:30;;;;;;;9.80;5.53;;;15.50;69.80;;;;;;4884398;29;20052;-89
2021/09/16 20:13:57;;;;;;;9.20;5.20;;;15.60;70.00;;;;;;4886447;29;20029;-88
2021/09/16 20:16:23;;;;;;;8.77;4.95;;;15.50;70.10;;;;;;4886062;29;20049;-89
2021/09/16 20:18:49;;;;;;;9.23;4.88;;;15.40;70.20;;;;;;4871248;29;20367;-90
2021/09/16 20:21:16;;;;;;;10.25;5.07;;;15.40;70.40;;;;;;4868834;29;20040;-89
2021/09/16 20:23:42;;;;;;;9.90;5.10;;;15.40;70.50;;;;;;4887410;29;20043;-88
2021/09/16 20:26:09;;;;;;;9.57;5.32;;;15.30;70.50;;;;;;4886658;29;20036;-89
2021/09/16 20:28:34;;;;;;;10.38;5.20;;;15.30;70.60;;;;;;4872484;29;20013;-91
2021/09/16 20:31:02;;;;;;;8.82;5.50;;;15.30;70.60;;;;;;4853134;29;20039;-91
2021/09/16 20:33:28;;;;;;;10.18;5.97;;;15.20;70.90;;;;;;4869648;29;20036;-91
2021/09/16 20:35:54;;;;;;;11.27;5.43;;;15.20;71.00;;;;;;4901288;29;20034;-92
2021/09/16 20:38:19;;;;;;;10.65;6.07;;;15.20;71.00;;;;;;4869832;29;20059;-91
2021/09/16 20:40:45;;;;;;;10.55;6.00;;;15.20;71.00;;;;;;4869088;29;20037;-91
2021/09/16 20:43:11;;;;;;;11.07;6.13;;;15.10;71.00;;;;;;4884757;29;20063;-91
2021/09/16 20:45:37;;;;;;;11.13;6.55;;;15.00;71.00;;;;;;4884175;29;20037;-91
2021/09/16 20:48:03;;;;;;;10.13;6.32;;;15.00;71.10;;;;;;4868836;29;20032;-91
2021/09/16 20:50:34;;;;;;;10.48;6.00;;;14.90;71.00;;;;;;4885657;29;20124;-91
2021/09/16 20:53:00;;;;;;;9.73;6.20;;;14.90;71.30;;;;;;4881931;29;20049;-91
2021/09/16 20:55:27;;;;;;;10.07;5.47;;;14.90;71.30;;;;;;4875145;29;20165;-91
2021/09/16 20:57:53;;;;;;;10.48;5.70;;;14.90;71.50;;;;;;4832602;29;20077;-91
2021/09/16 21:00:21;;;;;;;9.98;5.88;;;14.80;71.60;;;;;;4850400;29;20033;-90
2021/09/16 21:02:48;;;;;;;9.70;5.85;;;14.80;71.70;;;;;;4851405;29;20093;-92
2021/09/16 21:05:15;;;;;;;11.50;5.82;;;14.80;71.80;;;;;;4868968;29;20051;-93
2021/09/16 21:07:42;;;;;;;9.50;5.20;;;14.70;71.70;;;;;;4852267;29;20482;-92
2021/09/16 21:10:12;;;;;;;9.43;5.55;;;14.70;71.90;;;;;;4849830;29;20040;-93
2021/09/16 21:12:40;;;;;;;11.30;5.82;;;14.70;72.10;;;;;;4867335;29;20029;-89
2021/09/16 21:15:08;;;;;;;10.93;5.95;;;14.60;72.10;;;;;;4854895;29;20056;-89
2021/09/16 21:17:35;;;;;;;10.85;6.05;;;14.70;72.30;;;;;;4870908;29;20103;-90
2021/09/16 21:20:02;;;;;;;9.45;6.05;;;14.60;72.20;;;;;;4869409;29;20027;-89
2021/09/16 21:22:29;;;;;;;11.20;6.30;;;14.60;72.30;;;;;;4874698;29;20032;-88
2021/09/16 21:24:57;;;;;;;9.50;5.95;;;14.50;72.20;;;;;;4858368;29;20477;-90
2021/09/16 21:27:24;;;;;;;10.38;5.95;;;14.50;72.40;;;;;;4859403;29;20037;-90
2021/09/16 21:29:52;;;;;;;9.25;6.15;;;14.50;72.50;;;;;;4874180;29;20029;-90
2021/09/16 21:32:19;;;;;;;9.77;6.05;;;14.40;72.60;;;;;;4854685;29;20065;-89
2021/09/16 21:34:47;;;;;;;11.02;6.10;;;14.40;72.70;;;;;;4867700;29;20511;-88
2021/09/16 21:37:14;;;;;;;10.50;6.28;;;14.40;72.70;;;;;;4868363;29;20029;-88
2021/09/16 21:39:41;;;;;;;9.25;5.45;;;14.40;72.70;;;;;;4866162;29;20491;-87
2021/09/16 21:42:09;;;;;;;10.98;6.47;;;14.30;72.70;;;;;;4866520;29;20492;-88
2021/09/16 21:44:36;;;;;;;10.68;6.05;;;14.30;72.90;;;;;;4835660;29;20501;-88
2021/09/16 21:47:04;;;;;;;11.18;6.38;;;14.20;72.80;;;;;;4865839;29;20537;-88
2021/09/16 21:49:34;;;;;;;11.88;6.85;;;14.30;73.00;;;;;;4865944;29;20029;-88
2021/09/16 21:52:01;;;;;;;10.02;6.30;;;14.20;73.00;;;;;;4848696;29;20391;-90
2021/09/16 21:54:30;;;;;;;11.20;5.95;;;14.10;73.00;;;;;;4881682;29;20032;-90
2021/09/16 21:56:57;;;;;;;10.13;6.22;;;14.20;73.30;;;;;;4866294;29;20553;-89
2021/09/16 21:59:25;;;;;;;10.95;7.13;;;14.10;73.30;;;;;;4865904;29;20557;-89
2021/09/16 22:01:52;;;;;;;11.20;7.00;;;14.10;73.20;;;;;;4882808;29;20032;-89
2021/09/16 22:04:19;;;;;;;13.50;7.13;;;14.10;73.30;;;;;;4868700;29;20485;-89
2021/09/16 22:06:45;;;;;;;10.95;7.32;;;14.10;73.40;;;;;;4883883;29;20032;-89
2021/09/16 22:09:12;;;;;;;11.23;6.85;;;14.00;73.30;;;;;;4884091;29;20549;-90
2021/09/16 22:11:39;;;;;;;12.35;7.47;;;14.00;73.40;;;;;;4853950;29;20209;-90
2021/09/16 22:14:07;;;;;;;13.52;7.30;;;13.90;73.30;;;;;;4884670;29;20500;-90
2021/09/16 22:16:36;;;;;;;11.35;6.70;;;13.90;73.50;;;;;;4884237;29;20544;-89
2021/09/16 22:19:02;;;;;;;12.70;7.40;;;13.90;73.70;;;;;;4884179;29;20036;-89
2021/09/16 22:21:30;;;;;;;12.60;7.68;;;13.80;73.80;;;;;;4883952;29;20598;-89
2021/09/16 22:24:00;;;;;;;12.50;7.63;;;13.80;73.90;;;;;;4884470;29;20035;-89
2021/09/16 22:26:28;;;;;;;13.35;7.80;;;13.70;74.00;;;;;;4884896;29;20036;-90
2021/09/16 22:28:57;;;;;;;12.07;7.63;;;13.80;74.10;;;;;;4884598;29;20029;-89
2021/09/16 22:31:24;;;;;;;10.80;6.97;;;13.80;74.20;;;;;;4884083;29;20020;-89
2021/09/16 22:33:51;;;;;;;11.82;7.60;;;13.70;73.90;;;;;;4868171;29;20617;-90
2021/09/16 22:36:18;;;;;;;12.38;7.78;;;13.60;73.60;;;;;;4881684;29;20025;-90
2021/09/16 22:38:44;;;;;;;12.32;7.68;;;13.60;73.60;;;;;;4899795;29;20035;-90
2021/09/16 22:41:11;;;;;;;12.27;7.90;;;13.50;73.70;;;;;;4899377;29;20478;-90
2021/09/16 22:43:38;;;;;;;12.10;7.68;;;13.50;73.80;;;;;;4884312;29;20029;-90
2021/09/16 22:46:04;;;;;;;13.75;8.40;;;13.40;73.80;;;;;;4883538;29;20481;-90
2021/09/16 22:48:32;;;;;;;17.73;9.52;;;13.30;73.90;;;;;;4906536;29;20093;-90
2021/09/16 22:51:00;;;;;;;15.98;9.35;;;13.30;74.30;;;;;;4890155;29;20482;-89
2021/09/16 22:53:28;;;;;;;13.00;7.90;;;13.30;74.80;;;;;;4900090;29;20045;-89
2021/09/16 22:55:54;;;;;;;13.45;7.90;;;13.30;75.00;;;;;;4900644;29;20182;-89
2021/09/16 22:58:22;;;;;;;13.00;7.63;;;13.40;75.10;;;;;;4883739;29;20478;-90
2021/09/16 23:00:50;;;;;;;12.93;7.45;;;13.30;74.70;;;;;;4883750;29;20499;-90
2021/09/16 23:03:17;;;;;;;12.50;7.50;;;13.30;74.40;;;;;;4899015;29;20446;-89
2021/09/16 23:05:43;;;;;;;12.40;7.97;;;13.20;74.30;;;;;;4899338;29;20504;-90
2021/09/16 23:08:16;;;;;;;15.23;8.40;;;13.20;74.30;;;;;;4898766;29;20495;-89
2021/09/16 23:10:44;;;;;;;15.77;8.73;;;13.10;74.40;;;;;;4898863;29;20536;-89
2021/09/16 23:13:12;;;;;;;14.55;8.70;;;13.10;74.50;;;;;;4898621;29;20485;-89
2021/09/16 23:15:39;;;;;;;18.50;10.05;;;13.00;74.50;;;;;;4883668;29;20500;-89
2021/09/16 23:18:06;;;;;;;13.93;8.63;;;13.00;74.90;;;;;;4883020;29;20025;-89
2021/09/16 23:20:34;;;;;;;14.77;8.90;;;13.00;75.30;;;;;;4882569;29;20120;-89
2021/09/16 23:23:00;;;;;;;14.02;8.27;;;13.00;75.30;;;;;;4883240;29;20024;-89
2021/09/16 23:25:28;;;;;;;14.80;8.85;;;13.00;75.30;;;;;;4899810;29;20073;-89
2021/09/16 23:27:54;;;;;;;15.00;9.60;;;13.00;75.00;;;;;;4883473;29;20056;-89
2021/09/16 23:30:21;;;;;;;15.70;9.32;;;12.90;75.00;;;;;;4898466;29;20037;-89
2021/09/16 23:32:47;;;;;;;15.43;8.70;;;12.90;74.90;;;;;;4899442;29;20485;-89
2021/09/16 23:35:15;;;;;;;14.00;8.40;;;12.80;75.00;;;;;;4899440;29;20477;-88
2021/09/16 23:37:41;;;;;;;15.65;8.85;;;12.80;75.20;;;;;;4883973;29;20033;-88
2021/09/16 23:40:08;;;;;;;15.95;9.60;;;12.80;75.10;;;;;;4848980;29;20037;-89
2021/09/16 23:42:36;;;;;;;15.15;8.85;;;12.70;75.00;;;;;;4863987;29;20489;-89
2021/09/16 23:45:03;;;;;;;15.30;9.25;;;12.70;75.20;;;;;;4864156;29;20501;-89
2021/09/16 23:47:30;;;;;;;16.60;9.65;;;12.70;75.50;;;;;;4863877;29;20521;-89
2021/09/16 23:49:57;;;;;;;16.25;9.80;;;12.70;75.50;;;;;;4879849;29;20542;-90
2021/09/16 23:52:25;;;;;;;16.20;9.63;;;12.70;75.50;;;;;;4848563;29;20045;-90
2021/09/16 23:54:52;;;;;;;17.70;10.07;;;12.60;75.50;;;;;;4879806;29;20028;-89
2021/09/16 23:57:19;;;;;;;21.45;10.63;;;12.60;75.30;;;;;;4879829;29;20481;-90
2021/09/16 23:59:47;;;;;;;18.60;10.20;;;12.60;75.30;;;;;;4879739;29;20532;-90
